sensor_id;sensor_type;location;lat;lon;timestamp;pressure;altitude;pressure_sealevel;temperature;humidity
47710;BME280;33473;51.640;5.892;2022-12-29T00:10:31;100000;;;15.8;58.0
47710;BME280;33473;51.640;5.892;2022-12-29T00:23:51;100000;;;15.5;59.0
47710;BME280;33473;51.640;5.892;2022-12-29T00:37:11;99900;;;15.2;61.0
47710;BME280;33473;51.640;5.892;2022-12-29T00:50:30;99900;;;15.2;62.0
47710;BME280;33473;51.640;5.892;2022-12-29T01:03:50;99900;;;15.5;61.0
47710;BME280;33473;51.640;5.892;2022-12-29T01:17:10;99900;;;15.5;62.0
47710;BME280;33473;51.640;5.892;2022-12-29T01:30:29;99900;;;15.6;62.0
47710;BME280;33473;51.640;5.892;2022-12-29T01:43:49;99900;;;15.4;62.0
47710;BME280;33473;51.640;5.892;2022-12-29T01:57:09;99800;;;15.3;61.0
47710;BME280;33473;51.640;5.892;2022-12-29T02:10:28;99800;;;15.3;60.0
47710;BME280;33473;51.640;5.892;2022-12-29T02:23:48;99800;;;15.4;59.0
47710;BME280;33473;51.640;5.892;2022-12-29T02:37:08;99900;;;15.5;58.0
47710;BME280;33473;51.640;5.892;2022-12-29T02:50:27;99800;;;15.7;57.0
47710;BME280;33473;51.640;5.892;2022-12-29T03:03:47;99800;;;15.4;57.0
47710;BME280;33473;51.640;5.892;2022-12-29T03:17:07;99800;;;15.6;57.0
47710;BME280;33473;51.640;5.892;2022-12-29T03:30:26;99800;;;15.6;57.0
47710;BME280;33473;51.640;5.892;2022-12-29T03:43:46;99800;;;15.3;57.0
47710;BME280;33473;51.640;5.892;2022-12-29T03:57:06;99800;;;15.8;56.0
47710;BME280;33473;51.640;5.892;2022-12-29T04:10:26;99800;;;15.8;56.0
47710;BME280;33473;51.640;5.892;2022-12-29T04:23:45;99800;;;15.4;56.0
47710;BME280;33473;51.640;5.892;2022-12-29T04:37:05;99800;;;14.7;59.0
47710;BME280;33473;51.640;5.892;2022-12-29T04:50:25;99800;;;14.4;59.0
47710;BME280;33473;51.640;5.892;2022-12-29T05:03:44;99800;;;14.1;58.0
47710;BME280;33473;51.640;5.892;2022-12-29T05:17:04;99900;;;13.3;59.0
47710;BME280;33473;51.640;5.892;2022-12-29T05:30:24;99900;;;13.5;58.0
47710;BME280;33473;51.640;5.892;2022-12-29T05:43:43;99900;;;13.9;57.0
47710;BME280;33473;51.640;5.892;2022-12-29T05:57:03;99900;;;13.8;58.0
47710;BME280;33473;51.640;5.892;2022-12-29T06:10:23;99900;;;13.9;56.0
47710;BME280;33473;51.640;5.892;2022-12-29T06:23:42;99900;;;14.7;54.0
47710;BME280;33473;51.640;5.892;2022-12-29T06:37:02;99900;;;14.1;54.0
47710;BME280;33473;51.640;5.892;2022-12-29T06:50:22;99900;;;14.4;52.0
47710;BME280;33473;51.640;5.892;2022-12-29T07:03:41;99900;;;14.1;52.0
47710;BME280;33473;51.640;5.892;2022-12-29T07:17:01;99900;;;14.4;51.0
47710;BME280;33473;51.640;5.892;2022-12-29T07:30:21;100000;;;14.3;52.0
47710;BME280;33473;51.640;5.892;2022-12-29T07:43:40;100000;;;14.2;51.0
47710;BME280;33473;51.640;5.892;2022-12-29T07:57:00;100000;;;14.1;50.0
47710;BME280;33473;51.640;5.892;2022-12-29T08:10:20;100000;;;14.4;49.0
47710;BME280;33473;51.640;5.892;2022-12-29T08:23:39;100000;;;14.7;49.0
47710;BME280;33473;51.640;5.892;2022-12-29T08:36:59;100000;;;15.0;48.0
47710;BME280;33473;51.640;5.892;2022-12-29T08:50:19;100000;;;15.1;47.0
47710;BME280;33473;51.640;5.892;2022-12-29T09:03:38;100000;;;15.4;47.0
47710;BME280;33473;51.640;5.892;2022-12-29T09:16:58;100000;;;15.3;47.0
47710;BME280;33473;51.640;5.892;2022-12-29T09:30:18;100000;;;15.4;46.0
47710;BME280;33473;51.640;5.892;2022-12-29T09:43:37;100100;;;15.5;47.0
47710;BME280;33473;51.640;5.892;2022-12-29T09:56:57;100100;;;15.0;47.0
47710;BME280;33473;51.640;5.892;2022-12-29T10:10:17;100100;;;15.2;50.0
47710;BME280;33473;51.640;5.892;2022-12-29T10:23:36;100100;;;14.5;52.0
47710;BME280;33473;51.640;5.892;2022-12-29T10:36:56;100100;;;14.2;54.0
47710;BME280;33473;51.640;5.892;2022-12-29T10:50:16;100200;;;13.6;56.0
47710;BME280;33473;51.640;5.892;2022-12-29T11:03:35;100200;;;13.7;59.0
47710;BME280;33473;51.640;5.892;2022-12-29T11:16:55;100200;;;13.2;59.0
47710;BME280;33473;51.640;5.892;2022-12-29T11:30:15;100200;;;13.6;57.0
47710;BME280;33473;51.640;5.892;2022-12-29T11:43:34;100200;;;13.0;61.0
47710;BME280;33473;51.640;5.892;2022-12-29T11:56:54;100200;;;13.8;57.0
47710;BME280;33473;51.640;5.892;2022-12-29T12:10:14;100200;;;14.2;55.0
47710;BME280;33473;51.640;5.892;2022-12-29T12:23:33;100300;;;14.2;56.0
47710;BME280;33473;51.640;5.892;2022-12-29T12:36:53;100300;;;14.1;55.0
47710;BME280;33473;51.640;5.892;2022-12-29T12:50:13;100300;;;14.5;52.0
47710;BME280;33473;51.640;5.892;2022-12-29T13:03:32;100300;;;14.5;51.0
47710;BME280;33473;51.640;5.892;2022-12-29T13:16:52;100300;;;14.4;51.0
47710;BME280;33473;51.640;5.892;2022-12-29T13:30:12;100300;;;14.5;51.0
47710;BME280;33473;51.640;5.892;2022-12-29T13:43:31;100300;;;14.7;53.0
47710;BME280;33473;51.640;5.892;2022-12-29T13:56:51;100300;;;13.6;59.0
47710;BME280;33473;51.640;5.892;2022-12-29T14:10:11;100400;;;12.9;61.0
47710;BME280;33473;51.640;5.892;2022-12-29T14:23:31;100400;;;13.6;59.0
47710;BME280;33473;51.640;5.892;2022-12-29T14:36:50;100400;;;13.3;59.0
47710;BME280;33473;51.640;5.892;2022-12-29T14:50:10;100400;;;13.6;58.0
47710;BME280;33473;51.640;5.892;2022-12-29T15:03:30;100400;;;13.8;57.0
47710;BME280;33473;51.640;5.892;2022-12-29T15:16:49;100400;;;13.7;57.0
47710;BME280;33473;51.640;5.892;2022-12-29T15:30:09;100400;;;13.6;56.0
47710;BME280;33473;51.640;5.892;2022-12-29T15:43:29;100400;;;13.2;56.0
47710;BME280;33473;51.640;5.892;2022-12-29T15:56:48;100400;;;13.7;54.0
47710;BME280;33473;51.640;5.892;2022-12-29T16:10:08;100400;;;13.7;53.0
47710;BME280;33473;51.640;5.892;2022-12-29T16:23:28;100400;;;13.6;53.0
47710;BME280;33473;51.640;5.892;2022-12-29T16:36:47;100500;;;12.8;55.0
47710;BME280;33473;51.640;5.892;2022-12-29T16:50:07;100500;;;12.7;54.0
47710;BME280;33473;51.640;5.892;2022-12-29T17:03:27;100500;;;12.4;54.0
47710;BME280;33473;51.640;5.892;2022-12-29T17:16:49;100500;;;12.6;53.0
47710;BME280;33473;51.640;5.892;2022-12-29T17:30:09;100500;;;12.6;53.0
47710;BME280;33473;51.640;5.892;2022-12-29T17:43:28;100500;;;11.9;54.0
47710;BME280;33473;51.640;5.892;2022-12-29T17:56:48;100500;;;12.3;52.0
47710;BME280;33473;51.640;5.892;2022-12-29T18:10:08;100500;;;12.2;52.0
47710;BME280;33473;51.640;5.892;2022-12-29T18:23:27;100600;;;11.6;55.0
47710;BME280;33473;51.640;5.892;2022-12-29T18:36:47;100600;;;11.8;54.0
47710;BME280;33473;51.640;5.892;2022-12-29T18:50:07;100600;;;12.0;54.0
47710;BME280;33473;51.640;5.892;2022-12-29T19:03:26;100600;;;11.2;55.0
47710;BME280;33473;51.640;5.892;2022-12-29T19:16:46;100600;;;11.6;54.0
47710;BME280;33473;51.640;5.892;2022-12-29T19:30:06;100600;;;11.8;55.0
47710;BME280;33473;51.640;5.892;2022-12-29T19:43:25;100600;;;11.5;55.0
47710;BME280;33473;51.640;5.892;2022-12-29T19:56:45;100600;;;11.5;55.0
47710;BME280;33473;51.640;5.892;2022-12-29T20:10:05;100600;;;11.3;56.0
47710;BME280;33473;51.640;5.892;2022-12-29T20:23:25;100600;;;11.3;55.0
47710;BME280;33473;51.640;5.892;2022-12-29T20:36:44;100700;;;11.4;54.0
47710;BME280;33473;51.640;5.892;2022-12-29T20:50:04;100700;;;11.5;54.0
47710;BME280;33473;51.640;5.892;2022-12-29T21:03:23;100700;;;11.6;53.0
47710;BME280;33473;51.640;5.892;2022-12-29T21:16:43;100700;;;11.6;53.0
47710;BME280;33473;51.640;5.892;2022-12-29T21:30:03;100700;;;11.7;53.0
47710;BME280;33473;51.640;5.892;2022-12-29T21:43:22;100700;;;11.1;54.0
47710;BME280;33473;51.640;5.892;2022-12-29T21:56:42;100700;;;11.4;53.0
47710;BME280;33473;51.640;5.892;2022-12-29T22:10:02;100700;;;11.4;53.0
47710;BME280;33473;51.640;5.892;2022-12-29T22:23:21;100800;;;11.4;54.0
47710;BME280;33473;51.640;5.892;2022-12-29T22:36:41;100800;;;11.4;54.0
47710;BME280;33473;51.640;5.892;2022-12-29T22:50:01;100800;;;11.6;53.0
47710;BME280;33473;51.640;5.892;2022-12-29T23:03:20;100800;;;11.6;52.0
47710;BME280;33473;51.640;5.892;2022-12-29T23:16:40;100800;;;11.3;53.0
47710;BME280;33473;51.640;5.892;2022-12-29T23:30:00;100900;;;11.1;53.0
47710;BME280;33473;51.640;5.892;2022-12-29T23:43:19;100900;;;11.7;52.0
47710;BME280;33473;51.640;5.892;2022-12-29T23:56:39;100900;;;11.6;52.0
